Latest Coastal Weather Observations for Alva Beach

IDQ60701

Issued at 9:15 pm EST Saturday 25 October 2014 (issued every 10 minutes, with the page automatically refreshed every 10 minutes)

About coastal observations | Map of coastal stations | Coastal observations for QLD | Marine services | Other Formats
Station Details ID: 033295 Name: ALVA BEACH Lat: -19.46 Lon: 147.48 Height: 7.5 m
Data from the previous 72 hours. | See also: Recent months at Alva Beach
Date/Time
EST
Temp

°C
Wind Pressure Rain
since 9am
mm
Weather Cloud Vis
km
Sea
Height
m
Swell
Dir
 
Speed
knots
Gust
knots
hPa Trend Height
m
Period
s
Dir
25/09:00pm 22.9 ENE 12 16 1018.4 - 0.0 - - - - - - -
25/08:30pm 23.0 ENE 11 14 1018.3 - 0.0 - - - - - - -
25/08:00pm 23.0 ENE 12 15 1018.1 - 0.0 - - - - - - -
25/07:30pm 22.9 ENE 11 14 1018.0 - 0.0 - - - - - - -
25/07:00pm 23.0 ENE 11 14 1017.6 - 0.0 - - - - - - -
25/06:30pm 23.2 ENE 12 15 1017.3 - 0.0 - - - - - - -
25/06:00pm 23.2 ENE 13 15 1016.9 - 0.0 - - - - - - -
25/05:30pm 23.7 ENE 12 16 1016.7 - 0.0 - - - - - - -
25/05:00pm 24.0 ENE 13 15 1016.3 - 0.0 - - - - - - -
25/04:30pm 24.5 ENE 12 15 1016.2 - 0.0 - - - - - - -
25/04:00pm 25.0 NE 11 13 1016.0 - 0.0 - - - - - - -
25/03:30pm 25.3 ENE 12 15 1016.1 - 0.0 - - - - - - -
25/03:00pm 25.3 ENE 11 13 1016.3 - 0.0 - - - - - - -
25/02:30pm 25.7 ENE 11 13 1016.6 - 0.0 - - - - - - -
25/02:00pm 25.7 NE 11 13 1016.8 - 0.0 - - - - - - -
25/01:30pm 26.0 ENE 11 15 1017.2 - 0.0 - - - - - - -
25/01:00pm 25.7 E 9 12 1017.6 - 0.0 - - - - - - -
25/12:30pm 26.1 E 7 11 1018.0 - 0.0 - - - - - - -
25/12:00pm 26.0 E 9 13 1018.4 - 0.0 - - - - - - -
25/11:30am 26.9 ESE 7 10 1018.9 - 0.0 - - - - - - -
25/11:00am 25.7 ESE 7 12 1019.4 - 0.0 - - - - - - -
25/10:30am 25.3 E 8 12 1019.6 - 0.0 - - - - - - -
25/10:00am 24.8 E 10 13 1019.9 - 0.0 - - - - - - -
25/09:30am 24.9 E 9 13 1020.0 - 0.0 - - - - - - -
25/09:00am 24.7 E 10 13 1020.0 - 0.0 - - - - - - -
25/08:30am 25.0 ESE 7 12 1020.0 - 0.0 - - - - - - -
25/08:00am 24.6 E 9 13 1019.7 - 0.0 - - - - - - -
25/07:30am 23.2 SE 5 10 1019.5 - 0.0 - - - - - - -
25/07:00am 19.9 SSW 4 6 1019.2 - 0.0 - - - - - - -
25/06:30am 18.5 SSW 5 7 1019.1 - 0.0 - - - - - - -
25/06:00am 18.5 S 5 7 1018.8 - 0.0 - - - - - - -
25/05:30am 18.8 S 4 6 1018.5 - 0.0 - - - - - - -
25/05:00am 19.0 S 5 7 1018.3 - 0.0 - - - - - - -
25/04:30am 19.4 S 5 7 1018.1 - 0.0 - - - - - - -
25/04:00am 19.2 S 5 7 1017.9 - 0.0 - - - - - - -
25/03:30am 19.0 SSW 4 5 1017.9 - 0.0 - - - - - - -
25/03:00am 21.1 ESE 7 11 1017.8 - 0.0 - - - - - - -
25/02:30am 21.9 E 9 12 1017.9 - 0.0 - - - - - - -
25/02:00am 22.1 ESE 9 13 1018.2 - 0.0 - - - - - - -
25/01:30am 21.9 ESE 9 15 1018.5 - 0.0 - - - - - - -
25/01:00am 22.0 ESE 9 15 1018.8 - 0.0 - - - - - - -
25/12:30am 22.1 E 11 15 1019.0 - 0.0 - - - - - - -
25/12:00am 22.2 E 10 14 1019.4 - 0.0 - - - - - - -
 
Date/Time
EST
Temp

°C
Wind Pressure Rain
since 9am
mm
Weather Cloud Vis
km
Sea
Height
m
Swell
Dir
 
Speed
knots
Gust
knots
hPa Trend Height
m
Period
s
Dir
24/11:30pm 22.3 E 11 16 1019.8 - 0.0 - - - - - - -
24/11:00pm 22.6 E 11 15 1019.9 - 0.0 - - - - - - -
24/10:30pm 22.6 E 12 16 1020.0 - 0.0 - - - - - - -
24/10:00pm 22.7 E 13 18 1019.9 - 0.0 - - - - - - -
24/09:30pm 22.6 E 15 19 1019.7 - 0.0 - - - - - - -
24/09:00pm 22.5 E 16 21 1019.4 - 0.0 - - - - - - -
24/08:30pm 22.6 E 17 22 1019.0 - 0.0 - - - - - - -
24/08:00pm 23.0 E 14 19 1018.8 - 0.0 - - - - - - -
24/07:30pm 22.9 E 16 23 1018.4 - 0.0 - - - - - - -
24/07:00pm 22.8 E 14 20 1018.1 - 0.0 - - - - - - -
24/06:30pm 22.8 E 14 20 1018.0 - 0.0 - - - - - - -
24/06:00pm 22.9 E 14 18 1018.0 - 0.0 - - - - - - -
24/05:30pm 23.5 E 15 19 1017.7 - 0.0 - - - - - - -
24/05:00pm 23.7 E 12 16 1017.3 - 0.0 - - - - - - -
24/04:30pm 24.1 E 11 15 1017.1 - 0.0 - - - - - - -
24/04:00pm 24.6 E 10 14 1017.0 - 0.0 - - - - - - -
24/03:30pm 24.9 E 10 14 1017.1 - 0.0 - - - - - - -
24/03:00pm 24.5 E 9 13 1017.1 - 0.0 - - - - - - -
24/02:30pm 24.9 ENE 12 16 1017.3 - 0.0 - - - - - - -
24/02:00pm 25.0 ENE 11 16 1017.6 - 0.0 - - - - - - -
24/01:30pm 24.7 E 10 13 1018.0 - 0.0 - - - - - - -
24/01:00pm 25.4 E 10 13 1018.4 - 0.0 - - - - - - -
24/12:30pm 24.5 E 9 12 1018.8 - 0.0 - - - - - - -
24/12:00pm 25.1 E 9 12 1019.2 - 0.0 - - - - - - -
24/11:30am 25.5 ESE 7 12 1019.4 - 0.0 - - - - - - -
24/11:00am 25.7 ESE 8 13 1019.7 - 0.0 - - - - - - -
24/10:30am 24.8 ESE 7 11 1019.8 - 0.0 - - - - - - -
24/10:00am 24.6 SE 7 10 1020.0 - 0.0 - - - - - - -
24/09:30am 24.5 ESE 7 11 1020.1 - 0.0 - - - - - - -
24/09:00am 23.9 SE 7 11 1020.2 - 0.0 - - - - - - -
24/08:30am 23.4 SE 6 11 1020.1 - 0.0 - - - - - - -
24/08:00am 23.4 SE 5 9 1020.1 - 0.0 - - - - - - -
24/07:30am 22.2 SSE 5 9 1019.8 - 0.0 - - - - - - -
24/07:00am 20.0 S 5 8 1019.6 - 0.0 - - - - - - -
24/06:30am 17.7 S 5 8 1019.3 - 0.0 - - - - - - -
24/06:00am 16.0 S 5 7 1019.0 - 0.0 - - - - - - -
24/05:30am 15.7 SSW 5 6 1018.8 - 0.0 - - - - - - -
24/05:00am 16.0 SSW 4 5 1018.3 - 0.0 - - - - - - -
24/04:30am 16.5 SSW 5 7 1018.1 - 0.0 - - - - - - -
24/04:00am 16.9 SSW 4 6 1018.0 - 0.0 - - - - - - -
24/03:30am 17.7 S 4 5 1017.9 - 0.0 - - - - - - -
24/03:00am 18.4 SSW 5 7 1017.9 - 0.0 - - - - - - -
24/02:30am 21.1 ESE 7 12 1018.1 - 0.0 - - - - - - -
24/02:00am 21.9 E 10 14 1018.2 - 0.0 - - - - - - -
24/01:30am 21.8 E 10 16 1018.6 - 0.0 - - - - - - -
24/01:00am 22.3 E 12 17 1018.8 - 0.0 - - - - - - -
24/12:30am 22.3 E 12 16 1019.1 - 0.0 - - - - - - -
24/12:00am 22.4 E 12 17 1019.3 - 0.0 - - - - - - -
 
Date/Time
EST
Temp

°C
Wind Pressure Rain
since 9am
mm
Weather Cloud Vis
km
Sea
Height
m
Swell
Dir
 
Speed
knots
Gust
knots
hPa Trend Height
m
Period
s
Dir
23/11:30pm 22.3 E 15 23 1019.4 - 0.0 - - - - - - -
23/11:00pm 22.5 E 16 21 1019.4 - 0.0 - - - - - - -
23/10:30pm 22.6 E 15 20 1019.5 - 0.0 - - - - - - -
23/10:00pm 22.8 E 14 19 1019.4 - 0.0 - - - - - - -
23/09:30pm 22.6 E 15 20 1019.3 - 0.0 - - - - - - -
23/09:00pm 22.6 E 16 22 1018.9 - 0.0 - - - - - - -
23/08:30pm 22.7 E 17 23 1018.6 - 0.0 - - - - - - -
23/08:00pm 22.7 E 16 23 1018.2 - 0.0 - - - - - - -
23/07:30pm 22.8 E 18 22 1017.9 - 0.0 - - - - - - -
23/07:00pm 22.7 E 17 23 1017.5 - 0.0 - - - - - - -
23/06:30pm 22.9 E 19 25 1017.0 - 0.0 - - - - - - -
23/06:00pm 22.8 E 20 26 1016.4 - 0.0 - - - - - - -
23/05:30pm 23.2 E 21 26 1016.1 - 0.0 - - - - - - -
23/05:00pm 23.5 E 19 26 1015.6 - 0.0 - - - - - - -
23/04:30pm 24.2 E 17 21 1015.5 - 0.0 - - - - - - -
23/04:00pm 24.3 E 18 23 1015.4 - 0.0 - - - - - - -
23/03:30pm 24.9 E 17 21 1015.5 - 0.0 - - - - - - -
23/03:00pm 25.1 E 17 22 1015.8 - 0.0 - - - - - - -
23/02:30pm 25.6 E 16 21 1016.1 - 0.0 - - - - - - -
23/02:00pm 25.8 E 15 19 1016.2 - 0.0 - - - - - - -
23/01:30pm 25.9 E 14 18 1016.5 - 0.0 - - - - - - -
23/01:00pm 25.7 E 13 16 1017.0 - 0.0 - - - - - - -
23/12:30pm 25.2 E 11 15 1017.7 - 0.0 - - - - - - -
23/12:00pm 24.8 E 11 15 1018.2 - 0.0 - - - - - - -
23/11:30am 25.8 ESE 9 14 1018.7 - 0.0 - - - - - - -
23/11:00am 26.0 ESE 8 14 1019.0 - 0.0 - - - - - - -
23/10:30am 25.6 ESE 8 16 1019.3 - 0.0 - - - - - - -
23/10:00am 25.6 ESE 9 16 1019.5 - 0.0 - - - - - - -
23/09:30am 25.0 ESE 10 19 1019.6 - 0.0 - - - - - - -
23/09:00am 23.8 ESE 13 19 1019.6 - 0.2 - - - - - - -
23/08:30am 23.1 SE 11 16 1019.5 - 0.2 - - - - - - -
23/08:00am 22.8 SE 6 11 1019.4 - 0.2 - - - - - - -
23/07:30am 21.1 S 5 7 1019.1 - 0.2 - - - - - - -
23/07:00am 19.8 S 5 8 1019.0 - 0.2 - - - - - - -
23/06:30am 18.3 S 5 8 1018.7 - 0.2 - - - - - - -
23/06:00am 17.5 S 5 7 1018.5 - 0.2 - - - - - - -
23/05:30am 17.2 S 5 7 1018.2 - 0.2 - - - - - - -
23/05:00am 17.4 SSW 5 8 1018.0 - 0.2 - - - - - - -
23/04:30am 17.8 S 6 8 1017.8 - 0.2 - - - - - - -
23/04:00am 18.5 SSW 5 7 1017.7 - 0.2 - - - - - - -
23/03:30am 21.2 SE 9 13 1017.7 - 0.2 - - - - - - -
23/03:00am 21.2 ESE 9 13 1017.8 - 0.2 - - - - - - -
23/02:30am 21.0 ESE 9 16 1017.9 - 0.2 - - - - - - -
23/02:00am 21.1 ESE 11 19 1018.3 - 0.2 - - - - - - -
23/01:30am 21.4 ESE 11 18 1018.7 - 0.2 - - - - - - -
23/01:00am 21.5 ESE 9 14 1018.9 - 0.2 - - - - - - -
23/12:30am 21.6 E 12 19 1019.3 - 0.2 - - - - - - -
23/12:00am 22.1 E 13 18 1019.5 - 0.2 - - - - - - -
 
Date/Time
EST
Temp

°C
Wind Pressure Rain
since 9am
mm
Weather Cloud Vis
km
Sea
Height
m
Swell
Dir
 
Speed
knots
Gust
knots
hPa Trend Height
m
Period
s
Dir
22/11:30pm 22.3 E 15 20 1019.6 - 0.2 - - - - - - -
22/11:00pm 22.4 E 16 22 1019.8 - 0.2 - - - - - - -
22/10:30pm 22.4 E 16 22 1019.7 - 0.2 - - - - - - -
22/10:00pm 22.6 E 16 22 1019.6 - 0.2 - - - - - - -
22/09:30pm 22.8 E 16 20 1019.4 - 0.2 - - - - - - -

Other Formats:

Comma delimited format used in spreadsheet applications
http://www.bom.gov.au/fwo/IDQ60701/IDQ60701.95296.axf

JavaScript Object Notation format (JSON) in row-major order
http://www.bom.gov.au/fwo/IDQ60701/IDQ60701.95296.json